sensor_id;sensor_type;location;lat;lon;timestamp;pressure;altitude;pressure_sealevel;temperature
70415;BMP280;57837;52.064;113.478;2022-12-07T00:00:47;93573.53;;;-7.25
70415;BMP280;57837;52.064;113.478;2022-12-07T00:03:53;93569.31;;;-7.33
70415;BMP280;57837;52.064;113.478;2022-12-07T00:06:57;93574.16;;;-7.40
70415;BMP280;57837;52.064;113.478;2022-12-07T00:10:00;93568.31;;;-7.44
70415;BMP280;57837;52.064;113.478;2022-12-07T00:13:04;93572.88;;;-7.46
70415;BMP280;57837;52.064;113.478;2022-12-07T00:16:11;93572.78;;;-7.50
70415;BMP280;57837;52.064;113.478;2022-12-07T00:19:15;93571.41;;;-7.47
70415;BMP280;57837;52.064;113.478;2022-12-07T00:22:18;93576.84;;;-7.33
70415;BMP280;57837;52.064;113.478;2022-12-07T00:25:21;93587.13;;;-7.26
70415;BMP280;57837;52.064;113.478;2022-12-07T00:28:25;93589.88;;;-7.19
70415;BMP280;57837;52.064;113.478;2022-12-07T00:31:32;93594.38;;;-7.24
70415;BMP280;57837;52.064;113.478;2022-12-07T00:34:38;93592.06;;;-7.29
70415;BMP280;57837;52.064;113.478;2022-12-07T00:37:42;93597.63;;;-7.24
70415;BMP280;57837;52.064;113.478;2022-12-07T00:40:55;93596.69;;;-7.19
70415;BMP280;57837;52.064;113.478;2022-12-07T00:43:58;93595.75;;;-7.02
70415;BMP280;57837;52.064;113.478;2022-12-07T00:47:02;93599.41;;;-7.00
70415;BMP280;57837;52.064;113.478;2022-12-07T00:50:06;93597.84;;;-6.92
70415;BMP280;57837;52.064;113.478;2022-12-07T00:53:09;93599.31;;;-6.91
70415;BMP280;57837;52.064;113.478;2022-12-07T00:56:21;93598.03;;;-6.97
70415;BMP280;57837;52.064;113.478;2022-12-07T00:59:25;93597.28;;;-7.10
70415;BMP280;57837;52.064;113.478;2022-12-07T01:02:29;93605.28;;;-7.08
70415;BMP280;57837;52.064;113.478;2022-12-07T01:05:33;93607.56;;;-7.03
70415;BMP280;57837;52.064;113.478;2022-12-07T01:08:36;93600.97;;;-6.83
70415;BMP280;57837;52.064;113.478;2022-12-07T01:11:40;93614.19;;;-6.86
70415;BMP280;57837;52.064;113.478;2022-12-07T01:14:42;93618.25;;;-6.57
70415;BMP280;57837;52.064;113.478;2022-12-07T01:17:45;93621.53;;;-6.29
70415;BMP280;57837;52.064;113.478;2022-12-07T01:21:02;93620.72;;;-6.33
70415;BMP280;57837;52.064;113.478;2022-12-07T01:24:09;93615.91;;;-6.38
70415;BMP280;57837;52.064;113.478;2022-12-07T01:27:13;93619.66;;;-6.32
70415;BMP280;57837;52.064;113.478;2022-12-07T01:30:17;93624.31;;;-6.18
70415;BMP280;57837;52.064;113.478;2022-12-07T01:33:21;93631.69;;;-6.13
70415;BMP280;57837;52.064;113.478;2022-12-07T01:36:29;93631.25;;;-6.03
70415;BMP280;57837;52.064;113.478;2022-12-07T01:39:34;93631.28;;;-5.87
70415;BMP280;57837;52.064;113.478;2022-12-07T01:42:37;93626.19;;;-5.75
70415;BMP280;57837;52.064;113.478;2022-12-07T01:45:42;93638.78;;;-5.75
70415;BMP280;57837;52.064;113.478;2022-12-07T01:48:45;93642.28;;;-5.64
70415;BMP280;57837;52.064;113.478;2022-12-07T01:51:53;93634.75;;;-5.48
70415;BMP280;57837;52.064;113.478;2022-12-07T01:55:01;93639.66;;;-5.23
70415;BMP280;57837;52.064;113.478;2022-12-07T01:58:04;93641.59;;;-5.33
70415;BMP280;57837;52.064;113.478;2022-12-07T02:01:08;93634.94;;;-5.25
70415;BMP280;57837;52.064;113.478;2022-12-07T02:04:12;93630.31;;;-5.23
70415;BMP280;57837;52.064;113.478;2022-12-07T02:07:16;93630.22;;;-5.27
70415;BMP280;57837;52.064;113.478;2022-12-07T02:10:25;93628.94;;;-5.20
70415;BMP280;57837;52.064;113.478;2022-12-07T02:13:32;93634.44;;;-5.15
70415;BMP280;57837;52.064;113.478;2022-12-07T02:17:07;93645.66;;;-5.12
70415;BMP280;57837;52.064;113.478;2022-12-07T02:20:28;93637.69;;;-5.14
70415;BMP280;57837;52.064;113.478;2022-12-07T02:27:27;93636.97;;;-4.99
70415;BMP280;57837;52.064;113.478;2022-12-07T02:30:06;93646.38;;;-4.80
70415;BMP280;57837;52.064;113.478;2022-12-07T02:33:16;93637.78;;;-4.60
70415;BMP280;57837;52.064;113.478;2022-12-07T02:36:30;93652.75;;;-4.51
70415;BMP280;57837;52.064;113.478;2022-12-07T02:39:57;93635.56;;;-4.46
70415;BMP280;57837;52.064;113.478;2022-12-07T02:46:18;93632.59;;;-4.32
70415;BMP280;57837;52.064;113.478;2022-12-07T02:49:23;93625.66;;;-3.97
70415;BMP280;57837;52.064;113.478;2022-12-07T02:52:27;93622.09;;;-3.50
70415;BMP280;57837;52.064;113.478;2022-12-07T02:55:39;93619.31;;;-3.22
70415;BMP280;57837;52.064;113.478;2022-12-07T03:06:20;93614.59;;;-3.46
70415;BMP280;57837;52.064;113.478;2022-12-07T03:12:37;93612.69;;;-3.26
70415;BMP280;57837;52.064;113.478;2022-12-07T03:15:51;93615.75;;;-3.17
70415;BMP280;57837;52.064;113.478;2022-12-07T03:19:03;93615.13;;;-3.11
70415;BMP280;57837;52.064;113.478;2022-12-07T03:22:11;93616.28;;;-3.05
70415;BMP280;57837;52.064;113.478;2022-12-07T03:25:16;93614.25;;;-3.22
70415;BMP280;57837;52.064;113.478;2022-12-07T03:28:22;93607.47;;;-3.14
70415;BMP280;57837;52.064;113.478;2022-12-07T03:31:39;93601.84;;;-3.04
70415;BMP280;57837;52.064;113.478;2022-12-07T03:34:57;93601.00;;;-2.85
70415;BMP280;57837;52.064;113.478;2022-12-07T03:41:34;93597.50;;;-2.77
70415;BMP280;57837;52.064;113.478;2022-12-07T03:44:47;93597.53;;;-3.00
70415;BMP280;57837;52.064;113.478;2022-12-07T03:55:11;93597.91;;;-3.24
70415;BMP280;57837;52.064;113.478;2022-12-07T03:58:19;93592.47;;;-3.26
70415;BMP280;57837;52.064;113.478;2022-12-07T04:01:24;93595.63;;;-3.10
70415;BMP280;57837;52.064;113.478;2022-12-07T04:04:28;93590.16;;;-2.86
70415;BMP280;57837;52.064;113.478;2022-12-07T04:07:32;93595.06;;;-2.67
70415;BMP280;57837;52.064;113.478;2022-12-07T04:10:35;93604.28;;;-2.55
70415;BMP280;57837;52.064;113.478;2022-12-07T04:13:39;93608.06;;;-2.38
70415;BMP280;57837;52.064;113.478;2022-12-07T04:17:01;93602.13;;;-2.23
70415;BMP280;57837;52.064;113.478;2022-12-07T04:20:05;93602.13;;;-2.23
70415;BMP280;57837;52.064;113.478;2022-12-07T04:23:09;93604.63;;;-2.26
70415;BMP280;57837;52.064;113.478;2022-12-07T04:26:13;93604.28;;;-2.25
70415;BMP280;57837;52.064;113.478;2022-12-07T04:29:17;93595.66;;;-2.17
70415;BMP280;57837;52.064;113.478;2022-12-07T04:32:20;93595.28;;;-2.15
70415;BMP280;57837;52.064;113.478;2022-12-07T04:35:24;93599.97;;;-2.17
70415;BMP280;57837;52.064;113.478;2022-12-07T04:38:28;93598.47;;;-2.25
70415;BMP280;57837;52.064;113.478;2022-12-07T04:41:31;93592.84;;;-2.42
70415;BMP280;57837;52.064;113.478;2022-12-07T04:44:36;93602.44;;;-2.58
70415;BMP280;57837;52.064;113.478;2022-12-07T04:47:40;93593.56;;;-2.75
70415;BMP280;57837;52.064;113.478;2022-12-07T04:50:43;93583.13;;;-2.96
70415;BMP280;57837;52.064;113.478;2022-12-07T04:53:47;93587.28;;;-3.11
70415;BMP280;57837;52.064;113.478;2022-12-07T04:56:51;93578.69;;;-3.06
70415;BMP280;57837;52.064;113.478;2022-12-07T04:59:55;93592.78;;;-3.05
70415;BMP280;57837;52.064;113.478;2022-12-07T05:02:59;93583.94;;;-2.92
70415;BMP280;57837;52.064;113.478;2022-12-07T05:06:04;93600.41;;;-2.75
70415;BMP280;57837;52.064;113.478;2022-12-07T05:09:14;93598.69;;;-2.68
70415;BMP280;57837;52.064;113.478;2022-12-07T05:12:18;93597.22;;;-2.69
70415;BMP280;57837;52.064;113.478;2022-12-07T05:15:24;93602.28;;;-2.69
70415;BMP280;57837;52.064;113.478;2022-12-07T05:18:28;93596.16;;;-2.68
70415;BMP280;57837;52.064;113.478;2022-12-07T05:21:32;93591.78;;;-2.71
70415;BMP280;57837;52.064;113.478;2022-12-07T05:24:36;93592.50;;;-2.70
70415;BMP280;57837;52.064;113.478;2022-12-07T05:27:40;93585.13;;;-2.82
70415;BMP280;57837;52.064;113.478;2022-12-07T05:30:44;93590.69;;;-2.70
70415;BMP280;57837;52.064;113.478;2022-12-07T05:33:46;93590.09;;;-2.63
70415;BMP280;57837;52.064;113.478;2022-12-07T05:36:49;93587.22;;;-2.61
70415;BMP280;57837;52.064;113.478;2022-12-07T05:39:53;93590.91;;;-2.55
70415;BMP280;57837;52.064;113.478;2022-12-07T05:42:57;93600.34;;;-2.52
70415;BMP280;57837;52.064;113.478;2022-12-07T05:46:06;93608.38;;;-2.47
70415;BMP280;57837;52.064;113.478;2022-12-07T05:49:09;93609.84;;;-2.42
70415;BMP280;57837;52.064;113.478;2022-12-07T05:52:13;93610.63;;;-2.38
70415;BMP280;57837;52.064;113.478;2022-12-07T05:55:17;93601.22;;;-2.38
70415;BMP280;57837;52.064;113.478;2022-12-07T05:58:21;93601.25;;;-2.34
70415;BMP280;57837;52.064;113.478;2022-12-07T06:01:43;93590.34;;;-2.38
70415;BMP280;57837;52.064;113.478;2022-12-07T06:04:47;93599.28;;;-2.51
70415;BMP280;57837;52.064;113.478;2022-12-07T06:07:51;93601.56;;;-2.69
70415;BMP280;57837;52.064;113.478;2022-12-07T06:10:55;93598.25;;;-2.73
70415;BMP280;57837;52.064;113.478;2022-12-07T06:14:18;93603.59;;;-2.82
70415;BMP280;57837;52.064;113.478;2022-12-07T06:17:23;93600.56;;;-2.91
70415;BMP280;57837;52.064;113.478;2022-12-07T06:20:27;93600.19;;;-2.93
70415;BMP280;57837;52.064;113.478;2022-12-07T06:23:33;93606.25;;;-2.97
70415;BMP280;57837;52.064;113.478;2022-12-07T06:26:35;93602.72;;;-2.93
70415;BMP280;57837;52.064;113.478;2022-12-07T06:29:38;93604.31;;;-3.08
70415;BMP280;57837;52.064;113.478;2022-12-07T06:32:43;93606.75;;;-3.15
70415;BMP280;57837;52.064;113.478;2022-12-07T06:35:47;93613.63;;;-3.15
70415;BMP280;57837;52.064;113.478;2022-12-07T09:11:59;93717.84;;;-5.08
70415;BMP280;57837;52.064;113.478;2022-12-07T09:15:03;93708.72;;;-4.97
70415;BMP280;57837;52.064;113.478;2022-12-07T09:18:06;93718.09;;;-4.81
70415;BMP280;57837;52.064;113.478;2022-12-07T09:21:09;93715.00;;;-4.75
70415;BMP280;57837;52.064;113.478;2022-12-07T09:24:13;93707.84;;;-4.73
70415;BMP280;57837;52.064;113.478;2022-12-07T09:27:16;93712.16;;;-4.73
70415;BMP280;57837;52.064;113.478;2022-12-07T09:30:20;93715.81;;;-4.71
70415;BMP280;57837;52.064;113.478;2022-12-07T09:33:24;93719.91;;;-4.66
70415;BMP280;57837;52.064;113.478;2022-12-07T09:36:28;93718.88;;;-4.62
70415;BMP280;57837;52.064;113.478;2022-12-07T09:39:32;93714.50;;;-4.65
70415;BMP280;57837;52.064;113.478;2022-12-07T09:42:41;93728.97;;;-4.62
70415;BMP280;57837;52.064;113.478;2022-12-07T09:45:51;93727.59;;;-4.59
70415;BMP280;57837;52.064;113.478;2022-12-07T09:48:56;93731.78;;;-4.67
70415;BMP280;57837;52.064;113.478;2022-12-07T09:55:13;93735.28;;;-4.55
70415;BMP280;57837;52.064;113.478;2022-12-07T09:58:22;93721.06;;;-4.60
70415;BMP280;57837;52.064;113.478;2022-12-07T10:01:33;93721.16;;;-4.56
70415;BMP280;57837;52.064;113.478;2022-12-07T10:04:37;93734.56;;;-4.72
70415;BMP280;57837;52.064;113.478;2022-12-07T10:07:41;93724.47;;;-4.72
70415;BMP280;57837;52.064;113.478;2022-12-07T10:10:47;93736.56;;;-4.77
70415;BMP280;57837;52.064;113.478;2022-12-07T10:13:53;93738.53;;;-4.71
70415;BMP280;57837;52.064;113.478;2022-12-07T10:16:57;93728.38;;;-4.74
70415;BMP280;57837;52.064;113.478;2022-12-07T10:20:26;93736.47;;;-4.81
70415;BMP280;57837;52.064;113.478;2022-12-07T10:23:30;93750.50;;;-4.83
70415;BMP280;57837;52.064;113.478;2022-12-07T10:29:39;93766.75;;;-4.81
70415;BMP280;57837;52.064;113.478;2022-12-07T10:32:43;93763.44;;;-4.85
70415;BMP280;57837;52.064;113.478;2022-12-07T10:35:46;93777.84;;;-4.85
70415;BMP280;57837;52.064;113.478;2022-12-07T10:42:03;93786.47;;;-4.86
70415;BMP280;57837;52.064;113.478;2022-12-07T10:48:41;93794.28;;;-4.76
70415;BMP280;57837;52.064;113.478;2022-12-07T10:52:50;93801.03;;;-4.64
70415;BMP280;57837;52.064;113.478;2022-12-07T11:02:02;93807.19;;;-4.49
70415;BMP280;57837;52.064;113.478;2022-12-07T11:16:02;93833.72;;;-4.55
70415;BMP280;57837;52.064;113.478;2022-12-07T11:21:58;93837.13;;;-4.64
70415;BMP280;57837;52.064;113.478;2022-12-07T11:25:28;93833.47;;;-4.66
70415;BMP280;57837;52.064;113.478;2022-12-07T11:35:41;93827.41;;;-4.77
70415;BMP280;57837;52.064;113.478;2022-12-07T11:38:53;93826.19;;;-4.83
70415;BMP280;57837;52.064;113.478;2022-12-07T11:42:31;93829.91;;;-4.93
70415;BMP280;57837;52.064;113.478;2022-12-07T11:45:41;93825.84;;;-4.98
70415;BMP280;57837;52.064;113.478;2022-12-07T11:49:20;93825.03;;;-5.14
70415;BMP280;57837;52.064;113.478;2022-12-07T11:52:55;93817.06;;;-5.16
70415;BMP280;57837;52.064;113.478;2022-12-07T11:56:06;93819.50;;;-5.19
70415;BMP280;57837;52.064;113.478;2022-12-07T11:59:40;93821.88;;;-5.27
70415;BMP280;57837;52.064;113.478;2022-12-07T12:03:02;93828.25;;;-5.29
70415;BMP280;57837;52.064;113.478;2022-12-07T12:06:31;93831.00;;;-5.34
70415;BMP280;57837;52.064;113.478;2022-12-07T12:09:49;93836.06;;;-5.34
70415;BMP280;57837;52.064;113.478;2022-12-07T12:23:45;93840.13;;;-5.30
70415;BMP280;57837;52.064;113.478;2022-12-07T12:27:04;93845.50;;;-5.43
70415;BMP280;57837;52.064;113.478;2022-12-07T12:30:37;93843.31;;;-5.45
70415;BMP280;57837;52.064;113.478;2022-12-07T12:33:49;93852.28;;;-5.47
70415;BMP280;57837;52.064;113.478;2022-12-07T12:36:52;93851.53;;;-5.48
70415;BMP280;57837;52.064;113.478;2022-12-07T12:46:59;93857.53;;;-5.52
70415;BMP280;57837;52.064;113.478;2022-12-07T12:50:27;93863.22;;;-5.68
70415;BMP280;57837;52.064;113.478;2022-12-07T12:53:31;93876.66;;;-5.76
70415;BMP280;57837;52.064;113.478;2022-12-07T13:00:02;93877.19;;;-5.82
70415;BMP280;57837;52.064;113.478;2022-12-07T13:03:37;93875.63;;;-5.87
70415;BMP280;57837;52.064;113.478;2022-12-07T13:06:41;93872.38;;;-5.88
70415;BMP280;57837;52.064;113.478;2022-12-07T13:09:46;93873.09;;;-5.87
70415;BMP280;57837;52.064;113.478;2022-12-07T13:12:58;93869.22;;;-5.84
70415;BMP280;57837;52.064;113.478;2022-12-07T13:19:53;93880.53;;;-5.91
70415;BMP280;57837;52.064;113.478;2022-12-07T13:22:59;93889.25;;;-6.00
70415;BMP280;57837;52.064;113.478;2022-12-07T13:26:24;93890.41;;;-6.10
70415;BMP280;57837;52.064;113.478;2022-12-07T13:29:36;93893.66;;;-6.09
70415;BMP280;57837;52.064;113.478;2022-12-07T13:32:40;93907.41;;;-6.07
70415;BMP280;57837;52.064;113.478;2022-12-07T13:35:43;93916.00;;;-6.08
70415;BMP280;57837;52.064;113.478;2022-12-07T13:39:01;93913.59;;;-6.04
70415;BMP280;57837;52.064;113.478;2022-12-07T13:42:30;93918.53;;;-5.96
70415;BMP280;57837;52.064;113.478;2022-12-07T13:45:33;93921.38;;;-5.85
70415;BMP280;57837;52.064;113.478;2022-12-07T13:48:52;93919.28;;;-5.71
70415;BMP280;57837;52.064;113.478;2022-12-07T13:55:20;93916.22;;;-5.64
70415;BMP280;57837;52.064;113.478;2022-12-07T13:58:26;93921.59;;;-5.78
70415;BMP280;57837;52.064;113.478;2022-12-07T14:01:31;93920.97;;;-5.75
70415;BMP280;57837;52.064;113.478;2022-12-07T14:04:37;93927.69;;;-5.79
70415;BMP280;57837;52.064;113.478;2022-12-07T14:08:00;93924.44;;;-5.67
70415;BMP280;57837;52.064;113.478;2022-12-07T14:11:04;93920.22;;;-5.63
70415;BMP280;57837;52.064;113.478;2022-12-07T14:14:15;93931.69;;;-5.78
70415;BMP280;57837;52.064;113.478;2022-12-07T14:17:22;93934.81;;;-5.81
70415;BMP280;57837;52.064;113.478;2022-12-07T14:20:31;93928.09;;;-5.77
70415;BMP280;57837;52.064;113.478;2022-12-07T14:23:35;93934.81;;;-5.69
70415;BMP280;57837;52.064;113.478;2022-12-07T14:26:40;93943.44;;;-5.58
70415;BMP280;57837;52.064;113.478;2022-12-07T14:29:43;93938.19;;;-5.52
70415;BMP280;57837;52.064;113.478;2022-12-07T14:32:52;93938.09;;;-5.56
70415;BMP280;57837;52.064;113.478;2022-12-07T14:35:57;93939.97;;;-5.53
70415;BMP280;57837;52.064;113.478;2022-12-07T14:39:02;93948.50;;;-5.58
70415;BMP280;57837;52.064;113.478;2022-12-07T14:42:14;93942.50;;;-5.53
70415;BMP280;57837;52.064;113.478;2022-12-07T14:45:20;93943.97;;;-5.64
70415;BMP280;57837;52.064;113.478;2022-12-07T14:48:23;93947.00;;;-5.71
70415;BMP280;57837;52.064;113.478;2022-12-07T14:51:47;93945.00;;;-5.77
70415;BMP280;57837;52.064;113.478;2022-12-07T14:55:15;93943.63;;;-5.75
70415;BMP280;57837;52.064;113.478;2022-12-07T14:58:19;93937.25;;;-5.72
70415;BMP280;57837;52.064;113.478;2022-12-07T15:01:23;93947.22;;;-5.76
70415;BMP280;57837;52.064;113.478;2022-12-07T15:04:26;93950.16;;;-5.74
70415;BMP280;57837;52.064;113.478;2022-12-07T15:07:30;93953.50;;;-5.82
70415;BMP280;57837;52.064;113.478;2022-12-07T15:10:34;93947.22;;;-5.76
70415;BMP280;57837;52.064;113.478;2022-12-07T15:13:42;93945.94;;;-5.70
70415;BMP280;57837;52.064;113.478;2022-12-07T15:17:03;93935.78;;;-5.73
70415;BMP280;57837;52.064;113.478;2022-12-07T15:20:15;93929.47;;;-5.55
70415;BMP280;57837;52.064;113.478;2022-12-07T15:23:21;93941.34;;;-5.56
70415;BMP280;57837;52.064;113.478;2022-12-07T15:26:24;93934.94;;;-5.53
70415;BMP280;57837;52.064;113.478;2022-12-07T15:29:27;93931.84;;;-5.46
70415;BMP280;57837;52.064;113.478;2022-12-07T15:32:31;93929.03;;;-5.45
70415;BMP280;57837;52.064;113.478;2022-12-07T15:35:42;93927.69;;;-5.54
70415;BMP280;57837;52.064;113.478;2022-12-07T15:38:46;93921.91;;;-5.55
70415;BMP280;57837;52.064;113.478;2022-12-07T15:42:10;93937.75;;;-5.42
70415;BMP280;57837;52.064;113.478;2022-12-07T15:45:15;93927.03;;;-5.27
70415;BMP280;57837;52.064;113.478;2022-12-07T15:48:18;93932.38;;;-5.29
70415;BMP280;57837;52.064;113.478;2022-12-07T15:51:31;93936.59;;;-5.33
70415;BMP280;57837;52.064;113.478;2022-12-07T15:54:34;93933.31;;;-5.45
70415;BMP280;57837;52.064;113.478;2022-12-07T15:57:39;93939.34;;;-5.50
70415;BMP280;57837;52.064;113.478;2022-12-07T16:00:42;93929.25;;;-5.50
70415;BMP280;57837;52.064;113.478;2022-12-07T16:03:47;93933.56;;;-5.38
70415;BMP280;57837;52.064;113.478;2022-12-07T16:06:51;93928.81;;;-5.40
70415;BMP280;57837;52.064;113.478;2022-12-07T16:09:55;93929.59;;;-5.51
70415;BMP280;57837;52.064;113.478;2022-12-07T16:12:59;93929.25;;;-5.38
70415;BMP280;57837;52.064;113.478;2022-12-07T16:16:06;93935.13;;;-5.34
70415;BMP280;57837;52.064;113.478;2022-12-07T16:19:10;93927.38;;;-5.41
70415;BMP280;57837;52.064;113.478;2022-12-07T16:22:14;93938.78;;;-5.43
70415;BMP280;57837;52.064;113.478;2022-12-07T16:25:18;93935.56;;;-5.56
70415;BMP280;57837;52.064;113.478;2022-12-07T16:28:22;93932.50;;;-5.62
70415;BMP280;57837;52.064;113.478;2022-12-07T16:31:27;93929.81;;;-5.57
70415;BMP280;57837;52.064;113.478;2022-12-07T16:34:32;93926.94;;;-5.43
70415;BMP280;57837;52.064;113.478;2022-12-07T16:37:35;93917.28;;;-5.53
70415;BMP280;57837;52.064;113.478;2022-12-07T16:40:39;93921.69;;;-5.62
70415;BMP280;57837;52.064;113.478;2022-12-07T16:43:43;93916.22;;;-5.64
70415;BMP280;57837;52.064;113.478;2022-12-07T16:46:47;93925.69;;;-5.73
70415;BMP280;57837;52.064;113.478;2022-12-07T16:49:51;93919.81;;;-5.77
70415;BMP280;57837;52.064;113.478;2022-12-07T16:52:55;93926.94;;;-5.79
70415;BMP280;57837;52.064;113.478;2022-12-07T16:55:59;93925.06;;;-5.70
70415;BMP280;57837;52.064;113.478;2022-12-07T16:59:03;93927.91;;;-5.72
70415;BMP280;57837;52.064;113.478;2022-12-07T17:02:10;93936.59;;;-5.69
70415;BMP280;57837;52.064;113.478;2022-12-07T17:05:14;93923.81;;;-5.76
70415;BMP280;57837;52.064;113.478;2022-12-07T17:08:18;93908.25;;;-5.66
70415;BMP280;57837;52.064;113.478;2022-12-07T17:11:27;93911.72;;;-5.71
70415;BMP280;57837;52.064;113.478;2022-12-07T17:14:31;93911.59;;;-5.74
70415;BMP280;57837;52.064;113.478;2022-12-07T17:17:55;93906.38;;;-5.81
70415;BMP280;57837;52.064;113.478;2022-12-07T17:21:07;93911.38;;;-5.94
70415;BMP280;57837;52.064;113.478;2022-12-07T17:24:15;93910.03;;;-5.91
70415;BMP280;57837;52.064;113.478;2022-12-07T17:27:19;93914.25;;;-5.83
70415;BMP280;57837;52.064;113.478;2022-12-07T17:30:23;93914.16;;;-5.87
70415;BMP280;57837;52.064;113.478;2022-12-07T17:33:27;93904.88;;;-5.95
70415;BMP280;57837;52.064;113.478;2022-12-07T17:36:31;93900.47;;;-5.98
70415;BMP280;57837;52.064;113.478;2022-12-07T17:39:35;93905.41;;;-6.01
70415;BMP280;57837;52.064;113.478;2022-12-07T17:42:39;93901.44;;;-6.02
70415;BMP280;57837;52.064;113.478;2022-12-07T17:45:43;93892.91;;;-6.10
70415;BMP280;57837;52.064;113.478;2022-12-07T17:48:47;93891.75;;;-6.12
70415;BMP280;57837;52.064;113.478;2022-12-07T17:51:50;93896.97;;;-6.18
70415;BMP280;57837;52.064;113.478;2022-12-07T17:55:12;93887.63;;;-6.29
70415;BMP280;57837;52.064;113.478;2022-12-07T17:58:16;93892.44;;;-6.36
70415;BMP280;57837;52.064;113.478;2022-12-07T18:01:20;93893.06;;;-6.39
70415;BMP280;57837;52.064;113.478;2022-12-07T18:04:26;93888.53;;;-6.46
70415;BMP280;57837;52.064;113.478;2022-12-07T18:07:31;93887.63;;;-6.41
70415;BMP280;57837;52.064;113.478;2022-12-07T18:10:35;93887.94;;;-6.43
70415;BMP280;57837;52.064;113.478;2022-12-07T18:13:39;93882.75;;;-6.46
70415;BMP280;57837;52.064;113.478;2022-12-07T18:16:43;93888.41;;;-6.50
70415;BMP280;57837;52.064;113.478;2022-12-07T18:19:47;93889.72;;;-6.43
70415;BMP280;57837;52.064;113.478;2022-12-07T18:22:51;93883.38;;;-6.50
70415;BMP280;57837;52.064;113.478;2022-12-07T18:25:55;93886.00;;;-6.46
70415;BMP280;57837;52.064;113.478;2022-12-07T18:28:59;93878.34;;;-6.50
70415;BMP280;57837;52.064;113.478;2022-12-07T18:32:03;93884.84;;;-6.49
70415;BMP280;57837;52.064;113.478;2022-12-07T18:35:07;93895.28;;;-6.38
70415;BMP280;57837;52.064;113.478;2022-12-07T18:38:11;93898.53;;;-6.25
70415;BMP280;57837;52.064;113.478;2022-12-07T18:41:14;93893.34;;;-6.08
70415;BMP280;57837;52.064;113.478;2022-12-07T18:44:17;93895.84;;;-5.96
70415;BMP280;57837;52.064;113.478;2022-12-07T18:47:21;93900.91;;;-6.08
70415;BMP280;57837;52.064;113.478;2022-12-07T18:50:24;93903.78;;;-6.18
70415;BMP280;57837;52.064;113.478;2022-12-07T18:53:28;93900.75;;;-6.24
70415;BMP280;57837;52.064;113.478;2022-12-07T18:56:32;93902.53;;;-6.24
70415;BMP280;57837;52.064;113.478;2022-12-07T18:59:35;93897.78;;;-6.38
70415;BMP280;57837;52.064;113.478;2022-12-07T19:02:50;93890.31;;;-6.46
70415;BMP280;57837;52.064;113.478;2022-12-07T19:05:54;93895.47;;;-6.43
70415;BMP280;57837;52.064;113.478;2022-12-07T19:09:01;93889.72;;;-6.31
70415;BMP280;57837;52.064;113.478;2022-12-07T19:12:05;93888.78;;;-6.27
70415;BMP280;57837;52.064;113.478;2022-12-07T19:15:11;93892.03;;;-6.26
70415;BMP280;57837;52.064;113.478;2022-12-07T19:18:14;93891.81;;;-6.33
70415;BMP280;57837;52.064;113.478;2022-12-07T19:21:18;93891.72;;;-6.37
70415;BMP280;57837;52.064;113.478;2022-12-07T19:24:21;93889.41;;;-6.42
70415;BMP280;57837;52.064;113.478;2022-12-07T19:27:25;93889.25;;;-6.45
70415;BMP280;57837;52.064;113.478;2022-12-07T19:30:29;93884.53;;;-6.47
70415;BMP280;57837;52.064;113.478;2022-12-07T19:33:33;93886.63;;;-6.49
70415;BMP280;57837;52.064;113.478;2022-12-07T19:36:38;93878.13;;;-6.57
70415;BMP280;57837;52.064;113.478;2022-12-07T19:39:42;93877.69;;;-6.59
70415;BMP280;57837;52.064;113.478;2022-12-07T19:42:46;93880.78;;;-6.74
70415;BMP280;57837;52.064;113.478;2022-12-07T19:45:50;93890.50;;;-6.85
70415;BMP280;57837;52.064;113.478;2022-12-07T19:48:55;93882.00;;;-6.92
70415;BMP280;57837;52.064;113.478;2022-12-07T19:52:01;93870.63;;;-6.98
70415;BMP280;57837;52.064;113.478;2022-12-07T19:55:06;93866.72;;;-7.08
70415;BMP280;57837;52.064;113.478;2022-12-07T19:58:10;93874.22;;;-7.20
70415;BMP280;57837;52.064;113.478;2022-12-07T20:01:15;93866.22;;;-7.22
70415;BMP280;57837;52.064;113.478;2022-12-07T20:04:21;93858.25;;;-7.24
70415;BMP280;57837;52.064;113.478;2022-12-07T20:07:25;93862.00;;;-7.30
70415;BMP280;57837;52.064;113.478;2022-12-07T20:10:29;93864.38;;;-7.34
70415;BMP280;57837;52.064;113.478;2022-12-07T20:13:33;93868.22;;;-7.36
70415;BMP280;57837;52.064;113.478;2022-12-07T20:16:38;93871.31;;;-7.31
70415;BMP280;57837;52.064;113.478;2022-12-07T20:19:45;93869.22;;;-7.29
70415;BMP280;57837;52.064;113.478;2022-12-07T20:22:49;93865.56;;;-7.31
70415;BMP280;57837;52.064;113.478;2022-12-07T20:25:53;93869.53;;;-7.30
70415;BMP280;57837;52.064;113.478;2022-12-07T20:28:57;93873.34;;;-7.24
70415;BMP280;57837;52.064;113.478;2022-12-07T20:32:10;93867.84;;;-7.18
70415;BMP280;57837;52.064;113.478;2022-12-07T20:35:16;93853.69;;;-7.10
70415;BMP280;57837;52.064;113.478;2022-12-07T20:38:19;93855.47;;;-7.11
70415;BMP280;57837;52.064;113.478;2022-12-07T20:41:23;93859.38;;;-7.13
70415;BMP280;57837;52.064;113.478;2022-12-07T20:44:44;93852.69;;;-7.09
70415;BMP280;57837;52.064;113.478;2022-12-07T20:47:48;93848.97;;;-7.12
70415;BMP280;57837;52.064;113.478;2022-12-07T20:50:51;93853.63;;;-7.14
70415;BMP280;57837;52.064;113.478;2022-12-07T20:53:56;93859.59;;;-7.06
70415;BMP280;57837;52.064;113.478;2022-12-07T20:56:59;93850.50;;;-6.98
70415;BMP280;57837;52.064;113.478;2022-12-07T21:00:05;93852.28;;;-6.99
70415;BMP280;57837;52.064;113.478;2022-12-07T21:03:09;93860.56;;;-6.98
70415;BMP280;57837;52.064;113.478;2022-12-07T21:06:16;93859.59;;;-6.85
70415;BMP280;57837;52.064;113.478;2022-12-07T21:09:19;93856.13;;;-6.93
70415;BMP280;57837;52.064;113.478;2022-12-07T21:12:28;93852.66;;;-6.88
70415;BMP280;57837;52.064;113.478;2022-12-07T21:15:31;93863.38;;;-6.79
70415;BMP280;57837;52.064;113.478;2022-12-07T21:18:34;93861.78;;;-6.84
70415;BMP280;57837;52.064;113.478;2022-12-07T21:21:39;93857.00;;;-6.76
70415;BMP280;57837;52.064;113.478;2022-12-07T21:24:43;93856.69;;;-6.75
70415;BMP280;57837;52.064;113.478;2022-12-07T21:27:46;93857.31;;;-6.78
70415;BMP280;57837;52.064;113.478;2022-12-07T21:30:57;93857.72;;;-6.76
70415;BMP280;57837;52.064;113.478;2022-12-07T21:34:17;93859.09;;;-6.78
70415;BMP280;57837;52.064;113.478;2022-12-07T21:37:20;93859.41;;;-6.80